sensor_id;sensor_type;location;lat;lon;timestamp;pressure;altitude;pressure_sealevel;temperature;humidity
74334;BME280;62753;40.394;-80.022;2022-09-09T00:01:26;97023.90;;;27.74;27.01
74334;BME280;62753;40.394;-80.022;2022-09-09T00:03:44;97023.93;;;28.30;26.99
74334;BME280;62753;40.394;-80.022;2022-09-09T00:06:10;97022.78;;;28.31;26.73
74334;BME280;62753;40.394;-80.022;2022-09-09T00:08:38;97024.15;;;28.25;26.75
74334;BME280;62753;40.394;-80.022;2022-09-09T00:10:59;97028.21;;;27.97;26.96
74334;BME280;62753;40.394;-80.022;2022-09-09T00:13:24;97025.77;;;28.02;26.58
74334;BME280;62753;40.394;-80.022;2022-09-09T00:15:54;97024.73;;;28.46;26.55
74334;BME280;62753;40.394;-80.022;2022-09-09T00:18:18;97022.56;;;28.75;26.58
74334;BME280;62753;40.394;-80.022;2022-09-09T00:20:39;97026.87;;;28.35;26.39
74334;BME280;62753;40.394;-80.022;2022-09-09T00:23:08;97028.40;;;28.57;26.58
74334;BME280;62753;40.394;-80.022;2022-09-09T00:25:31;97031.97;;;27.85;26.23
74334;BME280;62753;40.394;-80.022;2022-09-09T00:27:51;97032.01;;;27.99;26.23
74334;BME280;62753;40.394;-80.022;2022-09-09T00:30:19;97034.47;;;27.86;26.29
74334;BME280;62753;40.394;-80.022;2022-09-09T00:32:43;97036.56;;;28.05;26.01
74334;BME280;62753;40.394;-80.022;2022-09-09T00:35:16;97044.87;;;27.36;26.66
74334;BME280;62753;40.394;-80.022;2022-09-09T00:37:32;97048.01;;;27.54;26.75
74334;BME280;62753;40.394;-80.022;2022-09-09T00:40:00;97047.59;;;27.38;26.40
74334;BME280;62753;40.394;-80.022;2022-09-09T00:42:26;97050.22;;;27.75;26.59
74334;BME280;62753;40.394;-80.022;2022-09-09T00:44:53;97050.86;;;27.94;26.85
74334;BME280;62753;40.394;-80.022;2022-09-09T00:47:26;97053.77;;;28.03;26.51
74334;BME280;62753;40.394;-80.022;2022-09-09T00:49:48;97057.67;;;27.37;26.64
74334;BME280;62753;40.394;-80.022;2022-09-09T00:52:13;97054.59;;;27.47;26.37
74334;BME280;62753;40.394;-80.022;2022-09-09T00:54:37;97058.64;;;28.11;26.29
74334;BME280;62753;40.394;-80.022;2022-09-09T00:57:03;97058.27;;;28.02;26.29
74334;BME280;62753;40.394;-80.022;2022-09-09T00:59:27;97062.55;;;27.55;26.62
74334;BME280;62753;40.394;-80.022;2022-09-09T01:01:44;97071.02;;;27.81;26.67
74334;BME280;62753;40.394;-80.022;2022-09-09T01:04:13;97078.69;;;27.81;26.92
74334;BME280;62753;40.394;-80.022;2022-09-09T01:06:36;97081.64;;;28.00;26.88
74334;BME280;62753;40.394;-80.022;2022-09-09T01:09:13;97079.03;;;28.00;26.46
74334;BME280;62753;40.394;-80.022;2022-09-09T01:11:26;97081.96;;;27.72;26.66
74334;BME280;62753;40.394;-80.022;2022-09-09T01:13:56;97083.14;;;27.92;26.93
74334;BME280;62753;40.394;-80.022;2022-09-09T01:16:14;97082.87;;;27.70;26.77
74334;BME280;62753;40.394;-80.022;2022-09-09T01:18:44;97083.53;;;28.08;26.93
74334;BME280;62753;40.394;-80.022;2022-09-09T01:21:13;97089.09;;;27.51;27.19
74334;BME280;62753;40.394;-80.022;2022-09-09T01:23:42;97091.26;;;27.53;27.00
74334;BME280;62753;40.394;-80.022;2022-09-09T01:26:10;97093.15;;;27.47;27.20
74334;BME280;62753;40.394;-80.022;2022-09-09T01:28:25;97095.27;;;27.31;27.52
74334;BME280;62753;40.394;-80.022;2022-09-09T01:30:45;97099.76;;;27.54;28.05
74334;BME280;62753;40.394;-80.022;2022-09-09T01:33:13;97102.21;;;27.44;28.17
74334;BME280;62753;40.394;-80.022;2022-09-09T01:35:42;97103.85;;;27.15;28.36
74334;BME280;62753;40.394;-80.022;2022-09-09T01:38:01;97103.91;;;26.94;28.42
74334;BME280;62753;40.394;-80.022;2022-09-09T01:40:26;97108.57;;;27.17;28.65
74334;BME280;62753;40.394;-80.022;2022-09-09T01:42:52;97112.94;;;27.94;28.33
74334;BME280;62753;40.394;-80.022;2022-09-09T01:45:17;97114.42;;;27.25;28.54
74334;BME280;62753;40.394;-80.022;2022-09-09T01:47:42;97113.53;;;27.20;28.45
74334;BME280;62753;40.394;-80.022;2022-09-09T01:50:09;97113.03;;;27.46;28.49
74334;BME280;62753;40.394;-80.022;2022-09-09T01:52:35;97115.92;;;27.19;28.60
74334;BME280;62753;40.394;-80.022;2022-09-09T01:54:58;97115.15;;;26.95;28.43
74334;BME280;62753;40.394;-80.022;2022-09-09T01:57:26;97115.47;;;27.06;28.54
74334;BME280;62753;40.394;-80.022;2022-09-09T01:59:58;97115.73;;;27.24;28.71
74334;BME280;62753;40.394;-80.022;2022-09-09T02:02:18;97110.95;;;26.87;28.68
74334;BME280;62753;40.394;-80.022;2022-09-09T02:04:41;97109.12;;;26.80;28.79
74334;BME280;62753;40.394;-80.022;2022-09-09T02:07:10;97107.30;;;27.05;28.83
74334;BME280;62753;40.394;-80.022;2022-09-09T02:09:30;97107.25;;;27.22;28.89
74334;BME280;62753;40.394;-80.022;2022-09-09T02:11:59;97107.24;;;27.07;28.80
74334;BME280;62753;40.394;-80.022;2022-09-09T02:14:25;97107.86;;;27.32;28.98
74334;BME280;62753;40.394;-80.022;2022-09-09T02:16:49;97108.12;;;27.45;29.16
74334;BME280;62753;40.394;-80.022;2022-09-09T02:19:14;97109.59;;;27.35;29.32
74334;BME280;62753;40.394;-80.022;2022-09-09T02:21:35;97112.83;;;26.36;29.69
74334;BME280;62753;40.394;-80.022;2022-09-09T02:24:02;97114.49;;;26.38;29.92
74334;BME280;62753;40.394;-80.022;2022-09-09T02:26:25;97116.89;;;26.41;30.39
74334;BME280;62753;40.394;-80.022;2022-09-09T02:28:51;97122.04;;;26.35;30.14
74334;BME280;62753;40.394;-80.022;2022-09-09T02:31:18;97120.70;;;26.80;30.37
74334;BME280;62753;40.394;-80.022;2022-09-09T02:33:44;97128.09;;;26.66;30.82
74334;BME280;62753;40.394;-80.022;2022-09-09T02:36:09;97125.99;;;26.28;30.73
74334;BME280;62753;40.394;-80.022;2022-09-09T02:38:36;97128.05;;;26.34;30.62
74334;BME280;62753;40.394;-80.022;2022-09-09T02:40:57;97129.01;;;26.64;30.83
74334;BME280;62753;40.394;-80.022;2022-09-09T02:43:23;97129.64;;;26.39;30.82
74334;BME280;62753;40.394;-80.022;2022-09-09T02:45:54;97129.34;;;26.51;30.81
74334;BME280;62753;40.394;-80.022;2022-09-09T02:48:20;97129.84;;;26.22;30.66
74334;BME280;62753;40.394;-80.022;2022-09-09T02:50:42;97129.48;;;26.29;30.73
74334;BME280;62753;40.394;-80.022;2022-09-09T02:53:09;97127.80;;;26.52;30.80
74334;BME280;62753;40.394;-80.022;2022-09-09T02:55:38;97127.31;;;26.17;30.99
74334;BME280;62753;40.394;-80.022;2022-09-09T02:57:54;97127.03;;;26.80;30.95
74334;BME280;62753;40.394;-80.022;2022-09-09T03:00:23;97127.50;;;26.57;30.61
74334;BME280;62753;40.394;-80.022;2022-09-09T03:02:44;97127.90;;;26.22;30.82
74334;BME280;62753;40.394;-80.022;2022-09-09T03:05:10;97129.80;;;26.44;30.93
74334;BME280;62753;40.394;-80.022;2022-09-09T03:07:35;97134.42;;;26.67;31.21
74334;BME280;62753;40.394;-80.022;2022-09-09T03:10:00;97139.79;;;26.17;32.00
74334;BME280;62753;40.394;-80.022;2022-09-09T03:12:25;97141.14;;;26.65;32.04
74334;BME280;62753;40.394;-80.022;2022-09-09T03:14:50;97141.18;;;26.27;32.32
74334;BME280;62753;40.394;-80.022;2022-09-09T03:17:16;97140.80;;;26.36;32.41
74334;BME280;62753;40.394;-80.022;2022-09-09T03:19:41;97145.17;;;26.33;32.56
74334;BME280;62753;40.394;-80.022;2022-09-09T03:22:06;97149.25;;;26.45;32.52
74334;BME280;62753;40.394;-80.022;2022-09-09T03:24:31;97149.27;;;26.17;32.71
74334;BME280;62753;40.394;-80.022;2022-09-09T03:26:56;97147.97;;;26.29;33.40
74334;BME280;62753;40.394;-80.022;2022-09-09T03:29:21;97145.34;;;26.28;33.35
74334;BME280;62753;40.394;-80.022;2022-09-09T03:31:47;97147.53;;;26.25;33.37
74334;BME280;62753;40.394;-80.022;2022-09-09T03:34:12;97150.58;;;25.73;33.63
74334;BME280;62753;40.394;-80.022;2022-09-09T03:36:37;97159.82;;;25.37;33.58
74334;BME280;62753;40.394;-80.022;2022-09-09T03:39:02;97159.68;;;25.96;33.31
74334;BME280;62753;40.394;-80.022;2022-09-09T03:41:27;97163.31;;;26.07;33.79
74334;BME280;62753;40.394;-80.022;2022-09-09T03:43:53;97160.01;;;25.95;33.89
74334;BME280;62753;40.394;-80.022;2022-09-09T03:46:18;97157.93;;;25.73;34.06
74334;BME280;62753;40.394;-80.022;2022-09-09T03:48:43;97159.23;;;25.50;34.16
74334;BME280;62753;40.394;-80.022;2022-09-09T03:51:08;97158.59;;;25.88;34.11
74334;BME280;62753;40.394;-80.022;2022-09-09T03:53:34;97157.76;;;25.61;34.40
74334;BME280;62753;40.394;-80.022;2022-09-09T03:55:59;97160.11;;;26.09;34.37
74334;BME280;62753;40.394;-80.022;2022-09-09T03:58:24;97161.66;;;25.46;34.69
74334;BME280;62753;40.394;-80.022;2022-09-09T04:00:55;97162.88;;;24.97;34.91
74334;BME280;62753;40.394;-80.022;2022-09-09T04:03:15;97163.47;;;25.62;34.91
74334;BME280;62753;40.394;-80.022;2022-09-09T04:05:40;97160.27;;;25.42;34.75
74334;BME280;62753;40.394;-80.022;2022-09-09T04:08:06;97163.42;;;25.51;35.00
74334;BME280;62753;40.394;-80.022;2022-09-09T04:10:30;97167.50;;;25.24;35.42
74334;BME280;62753;40.394;-80.022;2022-09-09T04:12:56;97170.34;;;25.62;35.26
74334;BME280;62753;40.394;-80.022;2022-09-09T04:15:21;97171.14;;;24.78;35.43
74334;BME280;62753;40.394;-80.022;2022-09-09T04:17:47;97168.93;;;25.77;34.97
74334;BME280;62753;40.394;-80.022;2022-09-09T04:20:13;97169.24;;;25.19;35.02
74334;BME280;62753;40.394;-80.022;2022-09-09T04:22:38;97170.45;;;25.42;35.15
74334;BME280;62753;40.394;-80.022;2022-09-09T04:25:04;97174.33;;;25.31;34.94
74334;BME280;62753;40.394;-80.022;2022-09-09T04:27:28;97174.62;;;25.15;34.78
74334;BME280;62753;40.394;-80.022;2022-09-09T04:29:54;97175.31;;;25.46;34.84
74334;BME280;62753;40.394;-80.022;2022-09-09T04:32:19;97175.94;;;25.40;34.95
74334;BME280;62753;40.394;-80.022;2022-09-09T04:34:44;97177.21;;;25.47;34.81
74334;BME280;62753;40.394;-80.022;2022-09-09T04:37:10;97180.89;;;25.21;35.06
74334;BME280;62753;40.394;-80.022;2022-09-09T04:39:34;97178.30;;;24.96;35.50
74334;BME280;62753;40.394;-80.022;2022-09-09T04:41:59;97177.92;;;25.19;35.42
74334;BME280;62753;40.394;-80.022;2022-09-09T04:44:30;97178.74;;;25.47;35.43
74334;BME280;62753;40.394;-80.022;2022-09-09T04:46:50;97176.86;;;25.37;35.57
74334;BME280;62753;40.394;-80.022;2022-09-09T04:49:15;97176.46;;;24.56;36.15
74334;BME280;62753;40.394;-80.022;2022-09-09T04:51:40;97179.04;;;24.64;35.99
74334;BME280;62753;40.394;-80.022;2022-09-09T04:54:05;97178.16;;;24.81;35.60
74334;BME280;62753;40.394;-80.022;2022-09-09T04:56:31;97181.01;;;25.59;35.58
74334;BME280;62753;40.394;-80.022;2022-09-09T04:58:55;97182.99;;;25.32;35.69
74334;BME280;62753;40.394;-80.022;2022-09-09T05:01:22;97182.41;;;24.87;36.06
74334;BME280;62753;40.394;-80.022;2022-09-09T05:03:46;97183.07;;;25.15;36.08
74334;BME280;62753;40.394;-80.022;2022-09-09T05:06:15;97186.94;;;25.20;36.00
74334;BME280;62753;40.394;-80.022;2022-09-09T05:08:38;97192.13;;;24.17;36.46
74334;BME280;62753;40.394;-80.022;2022-09-09T05:11:03;97194.91;;;24.75;36.64
74334;BME280;62753;40.394;-80.022;2022-09-09T05:13:28;97193.20;;;24.75;36.59
74334;BME280;62753;40.394;-80.022;2022-09-09T05:15:53;97190.50;;;24.75;36.41
74334;BME280;62753;40.394;-80.022;2022-09-09T05:18:18;97188.66;;;24.47;36.65
74334;BME280;62753;40.394;-80.022;2022-09-09T05:20:44;97189.99;;;24.47;37.18
74334;BME280;62753;40.394;-80.022;2022-09-09T05:23:09;97194.57;;;24.40;37.04
74334;BME280;62753;40.394;-80.022;2022-09-09T05:25:34;97198.93;;;24.67;36.81
74334;BME280;62753;40.394;-80.022;2022-09-09T05:27:59;97201.87;;;24.34;36.67
74334;BME280;62753;40.394;-80.022;2022-09-09T05:30:24;97201.90;;;25.07;36.87
74334;BME280;62753;40.394;-80.022;2022-09-09T05:32:49;97200.88;;;24.66;36.76
74334;BME280;62753;40.394;-80.022;2022-09-09T05:35:14;97201.40;;;24.52;36.86
74334;BME280;62753;40.394;-80.022;2022-09-09T05:37:39;97200.08;;;24.77;36.93
74334;BME280;62753;40.394;-80.022;2022-09-09T05:40:05;97196.49;;;24.79;36.61
74334;BME280;62753;40.394;-80.022;2022-09-09T05:42:30;97200.90;;;23.55;39.91
74334;BME280;62753;40.394;-80.022;2022-09-09T05:44:55;97202.06;;;23.91;39.16
74334;BME280;62753;40.394;-80.022;2022-09-09T05:47:20;97206.13;;;24.06;38.37
74334;BME280;62753;40.394;-80.022;2022-09-09T05:49:45;97206.00;;;24.53;38.34
74334;BME280;62753;40.394;-80.022;2022-09-09T05:52:11;97204.80;;;24.32;38.51
74334;BME280;62753;40.394;-80.022;2022-09-09T05:54:36;97198.68;;;24.08;38.44
74334;BME280;62753;40.394;-80.022;2022-09-09T05:57:01;97189.08;;;24.19;38.26
74334;BME280;62753;40.394;-80.022;2022-09-09T05:59:26;97186.21;;;24.36;38.40
74334;BME280;62753;40.394;-80.022;2022-09-09T06:01:51;97184.80;;;24.16;38.35
74334;BME280;62753;40.394;-80.022;2022-09-09T06:04:16;97184.56;;;23.46;37.96
74334;BME280;62753;40.394;-80.022;2022-09-09T06:06:42;97186.48;;;23.51;38.43
74334;BME280;62753;40.394;-80.022;2022-09-09T06:09:08;97185.49;;;23.74;38.66
74334;BME280;62753;40.394;-80.022;2022-09-09T06:11:33;97185.34;;;24.11;38.75
74334;BME280;62753;40.394;-80.022;2022-09-09T06:13:57;97188.20;;;23.74;38.70
74334;BME280;62753;40.394;-80.022;2022-09-09T06:16:25;97192.07;;;24.08;38.60
74334;BME280;62753;40.394;-80.022;2022-09-09T06:18:48;97195.30;;;23.97;38.45
74334;BME280;62753;40.394;-80.022;2022-09-09T06:21:17;97193.12;;;24.01;38.16
74334;BME280;62753;40.394;-80.022;2022-09-09T06:23:39;97193.20;;;24.34;38.61
74334;BME280;62753;40.394;-80.022;2022-09-09T06:26:06;97187.68;;;24.18;38.23
74334;BME280;62753;40.394;-80.022;2022-09-09T06:28:28;97182.83;;;24.44;38.30
74334;BME280;62753;40.394;-80.022;2022-09-09T06:30:57;97184.98;;;23.95;38.22
74334;BME280;62753;40.394;-80.022;2022-09-09T06:33:19;97186.10;;;23.62;38.34
74334;BME280;62753;40.394;-80.022;2022-09-09T06:35:51;97184.62;;;24.34;38.03
74334;BME280;62753;40.394;-80.022;2022-09-09T06:38:10;97182.07;;;23.74;38.26
74334;BME280;62753;40.394;-80.022;2022-09-09T06:40:35;97176.83;;;23.91;38.68
74334;BME280;62753;40.394;-80.022;2022-09-09T06:43:01;97177.23;;;23.68;39.00
74334;BME280;62753;40.394;-80.022;2022-09-09T06:45:27;97177.27;;;23.80;38.75
74334;BME280;62753;40.394;-80.022;2022-09-09T06:47:54;97177.79;;;23.57;39.15
74334;BME280;62753;40.394;-80.022;2022-09-09T06:50:17;97178.42;;;23.64;39.13
74334;BME280;62753;40.394;-80.022;2022-09-09T06:52:46;97179.78;;;23.31;39.45
74334;BME280;62753;40.394;-80.022;2022-09-09T06:55:08;97179.41;;;23.56;39.49
74334;BME280;62753;40.394;-80.022;2022-09-09T06:57:33;97180.98;;;23.42;39.84
74334;BME280;62753;40.394;-80.022;2022-09-09T06:59:58;97180.12;;;23.24;39.20
74334;BME280;62753;40.394;-80.022;2022-09-09T07:02:23;97179.39;;;23.75;39.34
74334;BME280;62753;40.394;-80.022;2022-09-09T07:04:49;97180.64;;;24.17;39.11
74334;BME280;62753;40.394;-80.022;2022-09-09T07:07:14;97180.49;;;23.75;39.65
74334;BME280;62753;40.394;-80.022;2022-09-09T07:09:39;97180.82;;;23.26;39.82
74334;BME280;62753;40.394;-80.022;2022-09-09T07:12:04;97181.38;;;23.32;39.69
74334;BME280;62753;40.394;-80.022;2022-09-09T07:14:29;97184.73;;;23.39;39.54
74334;BME280;62753;40.394;-80.022;2022-09-09T07:16:55;97184.65;;;23.75;39.49
74334;BME280;62753;40.394;-80.022;2022-09-09T07:19:20;97186.59;;;23.61;39.41
74334;BME280;62753;40.394;-80.022;2022-09-09T07:21:46;97185.11;;;24.40;39.48
74334;BME280;62753;40.394;-80.022;2022-09-09T07:24:12;97186.01;;;23.02;40.21
74334;BME280;62753;40.394;-80.022;2022-09-09T07:26:37;97182.04;;;23.12;40.24
74334;BME280;62753;40.394;-80.022;2022-09-09T07:29:01;97184.95;;;23.15;40.24
74334;BME280;62753;40.394;-80.022;2022-09-09T07:31:29;97185.07;;;23.01;40.19
74334;BME280;62753;40.394;-80.022;2022-09-09T07:33:52;97188.15;;;23.40;39.79
74334;BME280;62753;40.394;-80.022;2022-09-09T07:36:19;97197.26;;;23.42;40.18
74334;BME280;62753;40.394;-80.022;2022-09-09T07:38:44;97200.94;;;23.34;40.35
74334;BME280;62753;40.394;-80.022;2022-09-09T07:41:10;97203.66;;;23.42;39.45
74334;BME280;62753;40.394;-80.022;2022-09-09T07:43:33;97206.90;;;23.28;39.97
74334;BME280;62753;40.394;-80.022;2022-09-09T07:45:59;97207.52;;;23.44;39.99
74334;BME280;62753;40.394;-80.022;2022-09-09T07:48:23;97208.10;;;23.32;40.23
74334;BME280;62753;40.394;-80.022;2022-09-09T07:50:49;97211.90;;;22.87;39.51
74334;BME280;62753;40.394;-80.022;2022-09-09T07:53:15;97212.47;;;23.03;40.32
74334;BME280;62753;40.394;-80.022;2022-09-09T07:55:39;97210.99;;;23.62;40.11
74334;BME280;62753;40.394;-80.022;2022-09-09T07:58:05;97204.59;;;23.18;40.07
74334;BME280;62753;40.394;-80.022;2022-09-09T08:00:31;97202.21;;;23.06;40.24
74334;BME280;62753;40.394;-80.022;2022-09-09T08:02:56;97202.25;;;23.12;40.56
74334;BME280;62753;40.394;-80.022;2022-09-09T08:05:21;97202.34;;;23.06;40.28
74334;BME280;62753;40.394;-80.022;2022-09-09T08:07:47;97206.37;;;23.24;40.07
74334;BME280;62753;40.394;-80.022;2022-09-09T08:10:13;97209.15;;;23.05;39.92
74334;BME280;62753;40.394;-80.022;2022-09-09T08:12:38;97210.74;;;23.70;39.65
74334;BME280;62753;40.394;-80.022;2022-09-09T08:15:04;97211.91;;;23.42;39.92
74334;BME280;62753;40.394;-80.022;2022-09-09T08:17:28;97207.26;;;22.35;40.47
74334;BME280;62753;40.394;-80.022;2022-09-09T08:19:54;97205.00;;;22.57;40.08
74334;BME280;62753;40.394;-80.022;2022-09-09T08:22:19;97206.76;;;23.54;40.10
74334;BME280;62753;40.394;-80.022;2022-09-09T08:24:44;97211.39;;;23.48;40.03
74334;BME280;62753;40.394;-80.022;2022-09-09T08:27:10;97216.40;;;22.71;40.00
74334;BME280;62753;40.394;-80.022;2022-09-09T08:29:36;97212.86;;;23.61;40.01
74334;BME280;62753;40.394;-80.022;2022-09-09T08:32:01;97214.89;;;23.59;40.09
74334;BME280;62753;40.394;-80.022;2022-09-09T08:34:26;97217.54;;;23.33;40.02
74334;BME280;62753;40.394;-80.022;2022-09-09T08:36:51;97224.21;;;23.29;39.60
74334;BME280;62753;40.394;-80.022;2022-09-09T08:39:18;97225.82;;;23.56;40.07
74334;BME280;62753;40.394;-80.022;2022-09-09T08:41:58;97230.31;;;22.98;40.35
74334;BME280;62753;40.394;-80.022;2022-09-09T08:44:11;97237.96;;;22.71;40.55
74334;BME280;62753;40.394;-80.022;2022-09-09T08:46:41;97240.11;;;23.15;40.52
74334;BME280;62753;40.394;-80.022;2022-09-09T08:49:03;97236.94;;;22.64;40.43
74334;BME280;62753;40.394;-80.022;2022-09-09T08:51:27;97235.08;;;22.71;40.32
74334;BME280;62753;40.394;-80.022;2022-09-09T08:53:51;97238.65;;;23.53;40.20
74334;BME280;62753;40.394;-80.022;2022-09-09T08:56:18;97242.53;;;22.66;40.05
74334;BME280;62753;40.394;-80.022;2022-09-09T08:58:45;97243.31;;;22.96;40.06
74334;BME280;62753;40.394;-80.022;2022-09-09T09:01:18;97249.47;;;23.35;40.08
74334;BME280;62753;40.394;-80.022;2022-09-09T09:03:38;97253.88;;;22.66;40.09
74334;BME280;62753;40.394;-80.022;2022-09-09T09:06:03;97254.11;;;22.83;40.25
74334;BME280;62753;40.394;-80.022;2022-09-09T09:08:26;97254.90;;;22.58;40.62
74334;BME280;62753;40.394;-80.022;2022-09-09T09:10:49;97253.44;;;22.85;40.85
74334;BME280;62753;40.394;-80.022;2022-09-09T09:13:15;97253.82;;;22.56;40.85
74334;BME280;62753;40.394;-80.022;2022-09-09T09:15:38;97255.81;;;22.90;40.60
74334;BME280;62753;40.394;-80.022;2022-09-09T09:18:03;97261.05;;;22.73;40.53
74334;BME280;62753;40.394;-80.022;2022-09-09T09:20:34;97261.91;;;22.71;40.43
74334;BME280;62753;40.394;-80.022;2022-09-09T09:22:55;97263.35;;;22.61;40.18
74334;BME280;62753;40.394;-80.022;2022-09-09T09:25:20;97265.91;;;22.77;40.38
74334;BME280;62753;40.394;-80.022;2022-09-09T09:27:49;97267.37;;;22.91;40.19
74334;BME280;62753;40.394;-80.022;2022-09-09T09:30:15;97264.14;;;23.35;40.57
74334;BME280;62753;40.394;-80.022;2022-09-09T09:32:35;97262.44;;;22.35;41.05
74334;BME280;62753;40.394;-80.022;2022-09-09T09:34:59;97260.96;;;22.48;40.79
74334;BME280;62753;40.394;-80.022;2022-09-09T09:37:28;97259.74;;;22.75;40.64
74334;BME280;62753;40.394;-80.022;2022-09-09T09:39:49;97259.88;;;22.87;40.86
74334;BME280;62753;40.394;-80.022;2022-09-09T09:42:17;97262.48;;;22.44;40.63
74334;BME280;62753;40.394;-80.022;2022-09-09T09:44:40;97265.12;;;23.23;40.18
74334;BME280;62753;40.394;-80.022;2022-09-09T09:47:07;97270.21;;;22.77;40.16
74334;BME280;62753;40.394;-80.022;2022-09-09T09:49:30;97269.22;;;22.69;40.53
74334;BME280;62753;40.394;-80.022;2022-09-09T09:52:00;97271.97;;;22.57;40.39
74334;BME280;62753;40.394;-80.022;2022-09-09T09:54:26;97276.94;;;22.75;40.15
74334;BME280;62753;40.394;-80.022;2022-09-09T09:56:46;97277.16;;;22.59;39.84
74334;BME280;62753;40.394;-80.022;2022-09-09T09:59:23;97275.67;;;22.92;40.14
74334;BME280;62753;40.394;-80.022;2022-09-09T10:01:36;97274.28;;;22.63;39.96
74334;BME280;62753;40.394;-80.022;2022-09-09T10:06:31;97279.69;;;19.52;47.34
74334;BME280;62753;40.394;-80.022;2022-09-09T10:08:52;97277.81;;;21.83;43.94
74334;BME280;62753;40.394;-80.022;2022-09-09T10:11:28;97280.45;;;20.30;46.92
74334;BME280;62753;40.394;-80.022;2022-09-09T10:13:50;97283.77;;;20.00;47.56
74334;BME280;62753;40.394;-80.022;2022-09-09T10:16:20;97287.65;;;19.48;48.64
74334;BME280;62753;40.394;-80.022;2022-09-09T10:18:43;97294.80;;;18.41;52.60
74334;BME280;62753;40.394;-80.022;2022-09-09T10:21:05;97295.85;;;19.48;51.57
74334;BME280;62753;40.394;-80.022;2022-09-09T10:23:38;97297.36;;;20.47;47.23
74334;BME280;62753;40.394;-80.022;2022-09-09T10:26:02;97305.01;;;21.49;45.27
74334;BME280;62753;40.394;-80.022;2022-09-09T10:28:28;97308.13;;;20.92;44.71
74334;BME280;62753;40.394;-80.022;2022-09-09T10:30:47;97305.55;;;21.95;43.73
74334;BME280;62753;40.394;-80.022;2022-09-09T10:33:10;97306.47;;;21.42;42.63
74334;BME280;62753;40.394;-80.022;2022-09-09T10:35:35;97306.07;;;20.64;45.63
74334;BME280;62753;40.394;-80.022;2022-09-09T10:38:12;97312.06;;;18.17;51.86
74334;BME280;62753;40.394;-80.022;2022-09-09T10:40:32;97302.97;;;20.50;48.92
74334;BME280;62753;40.394;-80.022;2022-09-09T10:42:47;97307.40;;;21.21;46.18
74334;BME280;62753;40.394;-80.022;2022-09-09T10:45:18;97308.80;;;21.69;44.90
74334;BME280;62753;40.394;-80.022;2022-09-09T10:47:50;97313.43;;;19.80;48.75
74334;BME280;62753;40.394;-80.022;2022-09-09T10:50:18;97320.08;;;19.34;50.67
74334;BME280;62753;40.394;-80.022;2022-09-09T10:52:33;97317.72;;;20.48;47.58
74334;BME280;62753;40.394;-80.022;2022-09-09T10:54:57;97319.46;;;21.31;45.74
74334;BME280;62753;40.394;-80.022;2022-09-09T10:57:27;97326.43;;;20.59;46.62
74334;BME280;62753;40.394;-80.022;2022-09-09T10:59:48;97333.52;;;19.28;51.10
74334;BME280;62753;40.394;-80.022;2022-09-09T11:02:15;97343.47;;;18.97;52.31
74334;BME280;62753;40.394;-80.022;2022-09-09T11:04:40;97349.07;;;18.83;53.19
74334;BME280;62753;40.394;-80.022;2022-09-09T11:07:06;97355.68;;;18.89;52.66
74334;BME280;62753;40.394;-80.022;2022-09-09T11:09:30;97354.39;;;19.62;50.75
74334;BME280;62753;40.394;-80.022;2022-09-09T11:11:54;97350.52;;;20.66;48.00
74334;BME280;62753;40.394;-80.022;2022-09-09T11:14:25;97354.26;;;20.63;46.53
74334;BME280;62753;40.394;-80.022;2022-09-09T11:16:49;97356.95;;;21.27;45.71
74334;BME280;62753;40.394;-80.022;2022-09-09T11:19:14;97356.45;;;21.19;44.61
74334;BME280;62753;40.394;-80.022;2022-09-09T11:21:37;97363.49;;;21.78;43.55
74334;BME280;62753;40.394;-80.022;2022-09-09T11:24:03;97363.62;;;22.28;42.56
74334;BME280;62753;40.394;-80.022;2022-09-09T11:26:30;97366.31;;;22.20;42.68
74334;BME280;62753;40.394;-80.022;2022-09-09T11:28:58;97367.30;;;22.91;41.56
74334;BME280;62753;40.394;-80.022;2022-09-09T11:31:31;97369.28;;;23.43;41.18
74334;BME280;62753;40.394;-80.022;2022-09-09T11:33:51;97370.11;;;22.57;41.01
74334;BME280;62753;40.394;-80.022;2022-09-09T11:38:36;97376.00;;;22.41;41.06
74334;BME280;62753;40.394;-80.022;2022-09-09T11:40:58;97380.60;;;23.15;41.16
74334;BME280;62753;40.394;-80.022;2022-09-09T11:43:24;97384.18;;;22.49;41.26
74334;BME280;62753;40.394;-80.022;2022-09-09T11:45:51;97386.98;;;22.89;41.39
74334;BME280;62753;40.394;-80.022;2022-09-09T11:48:22;97389.26;;;22.74;41.35
74334;BME280;62753;40.394;-80.022;2022-09-09T11:50:37;97391.19;;;21.98;41.18
74334;BME280;62753;40.394;-80.022;2022-09-09T11:55:29;97400.60;;;23.02;40.75
74334;BME280;62753;40.394;-80.022;2022-09-09T11:57:58;97402.02;;;22.76;40.05
74334;BME280;62753;40.394;-80.022;2022-09-09T12:00:31;97405.88;;;22.90;40.55
74334;BME280;62753;40.394;-80.022;2022-09-09T12:02:48;97405.93;;;22.63;40.29
74334;BME280;62753;40.394;-80.022;2022-09-09T12:05:11;97409.02;;;21.49;43.36
74334;BME280;62753;40.394;-80.022;2022-09-09T12:07:38;97410.63;;;21.17;44.92
74334;BME280;62753;40.394;-80.022;2022-09-09T12:10:03;97413.73;;;20.13;47.29
74334;BME280;62753;40.394;-80.022;2022-09-09T12:12:30;97425.37;;;19.69;49.82
74334;BME280;62753;40.394;-80.022;2022-09-09T12:14:59;97422.38;;;20.84;48.11
74334;BME280;62753;40.394;-80.022;2022-09-09T12:17:19;97424.45;;;21.56;46.29
74334;BME280;62753;40.394;-80.022;2022-09-09T12:19:42;97427.56;;;19.85;50.05
74334;BME280;62753;40.394;-80.022;2022-09-09T12:22:13;97420.83;;;20.65;48.25
74334;BME280;62753;40.394;-80.022;2022-09-09T12:24:37;97420.94;;;21.25;47.64
74334;BME280;62753;40.394;-80.022;2022-09-09T12:27:04;97426.73;;;19.24;50.97
74334;BME280;62753;40.394;-80.022;2022-09-09T12:29:28;97423.89;;;19.77;51.25
74334;BME280;62753;40.394;-80.022;2022-09-09T12:31:53;97417.38;;;20.86;48.93
74334;BME280;62753;40.394;-80.022;2022-09-09T12:34:16;97423.53;;;21.50;47.68
74334;BME280;62753;40.394;-80.022;2022-09-09T12:36:40;97427.19;;;21.85;46.91